Time;durP1;ratioP1;P1;durP2;ratioP2;P2;SDS_P1;SDS_P2;PMS_P1;PMS_P2;Temp;Humidity;BMP_temperature;BMP_pressure;BME280_temperature;BME280_humidity;BME280_pressure;Samples;Min_cycle;Max_cycle;Signal;HPM_P1;HPM_P2
2023/03/07 00:00:21;;;;;;;0.60;0.30;;;2.50;99.90;;;;;;5072665;28;20473;-77
2023/03/07 00:02:50;;;;;;;1.00;0.90;;;2.50;99.90;;;;;;5072872;28;20445;-77
2023/03/07 00:05:19;;;;;;;3.53;1.00;;;2.50;99.90;;;;;;5072536;28;20485;-77
2023/03/07 00:07:45;;;;;;;0.60;0.60;;;2.50;99.90;;;;;;5072859;28;20999;-77
2023/03/07 00:10:12;;;;;;;1.27;0.70;;;2.40;99.90;;;;;;5076113;28;20449;-77
2023/03/07 00:12:39;;;;;;;0.40;0.33;;;2.50;99.90;;;;;;5076113;28;20457;-77
2023/03/07 00:15:07;;;;;;;0.97;0.60;;;2.50;99.90;;;;;;5076061;28;20450;-77
2023/03/07 00:17:35;;;;;;;0.40;0.40;;;2.50;99.90;;;;;;5075944;28;20477;-77
2023/03/07 00:20:05;;;;;;;0.30;0.30;;;2.50;99.90;;;;;;5075949;28;20456;-77
2023/03/07 00:22:33;;;;;;;0.80;0.80;;;2.50;99.90;;;;;;5075895;28;20444;-77
2023/03/07 00:25:00;;;;;;;0.40;0.30;;;2.50;99.90;;;;;;5075564;28;20477;-77
2023/03/07 00:27:26;;;;;;;0.40;0.30;;;2.50;99.90;;;;;;5075804;28;20472;-77
2023/03/07 00:29:53;;;;;;;1.97;0.93;;;2.60;99.90;;;;;;5075797;28;20453;-77
2023/03/07 00:32:20;;;;;;;0.70;0.43;;;2.60;99.90;;;;;;5075726;28;20445;-77
2023/03/07 00:34:46;;;;;;;5.67;1.20;;;2.60;99.90;;;;;;5075488;28;20449;-77
2023/03/07 00:37:14;;;;;;;0.50;0.33;;;2.60;99.90;;;;;;5075590;28;20814;-77
2023/03/07 00:39:42;;;;;;;0.50;0.50;;;2.60;99.90;;;;;;5075496;28;20833;-77
2023/03/07 00:42:09;;;;;;;3.13;0.60;;;2.60;99.90;;;;;;5075508;28;20457;-77
2023/03/07 00:44:36;;;;;;;0.83;0.83;;;2.70;99.90;;;;;;5075091;28;20584;-77
2023/03/07 00:47:03;;;;;;;1.60;0.63;;;2.70;99.90;;;;;;5075677;28;20453;-77
2023/03/07 00:49:30;;;;;;;1.90;0.50;;;2.70;99.90;;;;;;5075422;28;20450;-77
2023/03/07 00:51:56;;;;;;;0.30;0.30;;;2.60;99.90;;;;;;5075389;28;20449;-77
2023/03/07 00:54:23;;;;;;;0.30;0.30;;;2.60;99.90;;;;;;5075026;28;20960;-77
2023/03/07 00:56:51;;;;;;;0.40;0.40;;;2.60;99.90;;;;;;5075310;28;20516;-77
2023/03/07 00:59:18;;;;;;;0.30;0.30;;;2.60;99.90;;;;;;5075174;28;20476;-77
2023/03/07 01:01:45;;;;;;;2.13;0.70;;;2.50;99.90;;;;;;5074874;28;20971;-77
2023/03/07 01:04:11;;;;;;;0.67;0.67;;;2.60;99.90;;;;;;5075102;28;20489;-77
2023/03/07 01:06:38;;;;;;;0.60;0.60;;;2.60;99.90;;;;;;5075058;28;20453;-77
2023/03/07 01:09:07;;;;;;;0.97;0.97;;;2.60;99.90;;;;;;5075017;28;20468;-77
2023/03/07 01:11:35;;;;;;;0.30;0.20;;;2.60;99.90;;;;;;5074919;28;20556;-77
2023/03/07 01:14:06;;;;;;;0.40;0.37;;;2.60;99.90;;;;;;5074961;28;20445;-77
2023/03/07 01:16:34;;;;;;;0.80;0.40;;;2.60;99.90;;;;;;5074926;28;20437;-77
2023/03/07 01:19:02;;;;;;;1.37;0.63;;;2.60;99.90;;;;;;5074357;28;20470;-77
2023/03/07 01:21:31;;;;;;;0.70;0.70;;;2.60;99.90;;;;;;5074485;28;20980;-77
2023/03/07 01:23:58;;;;;;;0.30;0.30;;;2.50;99.90;;;;;;5074676;28;20577;-77
2023/03/07 01:26:28;;;;;;;4.20;0.50;;;2.60;99.90;;;;;;5074930;28;20441;-77
2023/03/07 01:28:56;;;;;;;0.70;0.70;;;2.60;99.90;;;;;;5074598;28;20556;-77
2023/03/07 01:31:25;;;;;;;0.90;0.47;;;2.60;99.90;;;;;;5074546;28;20452;-77
2023/03/07 01:33:53;;;;;;;0.30;0.30;;;2.60;99.90;;;;;;5074562;28;20442;-77
2023/03/07 01:36:24;;;;;;;1.50;0.67;;;2.60;99.90;;;;;;5074470;28;20468;-77
2023/03/07 01:38:54;;;;;;;0.40;0.40;;;2.60;99.90;;;;;;5074404;28;20561;-77
2023/03/07 01:41:21;;;;;;;0.60;0.40;;;2.50;99.90;;;;;;5074440;28;20426;-77
2023/03/07 01:43:48;;;;;;;0.37;0.33;;;2.40;99.90;;;;;;5074002;28;20501;-77
2023/03/07 01:46:42;;;;;;;0.40;0.37;;;2.40;99.90;;;;;;5074277;28;20457;-77
2023/03/07 01:49:14;;;;;;;0.30;0.27;;;2.40;99.90;;;;;;5074430;28;20466;-77
2023/03/07 01:51:44;;;;;;;0.30;0.30;;;2.50;99.90;;;;;;5074186;28;20793;-77
2023/03/07 01:54:15;;;;;;;0.30;0.30;;;2.50;99.90;;;;;;5073833;28;20925;-77
2023/03/07 01:56:44;;;;;;;1.23;0.50;;;2.50;99.90;;;;;;5074133;28;20425;-77
2023/03/07 01:59:11;;;;;;;0.40;0.40;;;2.50;99.90;;;;;;5074005;28;20462;-77
2023/03/07 02:01:39;;;;;;;1.43;1.00;;;2.50;99.90;;;;;;5073964;28;20516;-77
2023/03/07 02:04:12;;;;;;;0.57;0.53;;;2.50;99.90;;;;;;5073609;28;20997;-77
2023/03/07 02:06:39;;;;;;;3.03;0.90;;;2.50;99.90;;;;;;5073655;28;20911;-77
2023/03/07 02:09:11;;;;;;;2.00;0.73;;;2.50;99.90;;;;;;5073821;28;20466;-77
2023/03/07 02:11:40;;;;;;;1.73;0.60;;;2.50;99.90;;;;;;5074107;28;20439;-77
2023/03/07 02:14:07;;;;;;;0.47;0.47;;;2.50;99.90;;;;;;5073823;28;20445;-77
2023/03/07 02:16:34;;;;;;;0.40;0.37;;;2.50;99.90;;;;;;5073468;28;20819;-77
2023/03/07 02:19:01;;;;;;;0.50;0.50;;;2.50;99.90;;;;;;5073752;28;20473;-77
2023/03/07 02:21:38;;;;;;;0.30;0.30;;;2.50;99.90;;;;;;5073730;28;20446;-77
2023/03/07 02:24:18;;;;;;;0.50;0.40;;;2.60;99.90;;;;;;5073334;28;20984;-77
2023/03/07 02:26:48;;;;;;;1.23;0.47;;;2.50;99.90;;;;;;5073949;28;20426;-77
2023/03/07 02:29:15;;;;;;;0.40;0.30;;;2.50;99.90;;;;;;5073507;28;20470;-76
2023/03/07 02:31:42;;;;;;;1.17;0.83;;;2.60;99.90;;;;;;5073057;28;20460;-77
2023/03/07 02:34:23;;;;;;;0.40;0.40;;;2.50;99.90;;;;;;5073535;28;20457;-77
2023/03/07 02:36:52;;;;;;;0.50;0.40;;;2.50;99.90;;;;;;5073506;28;20433;-77
2023/03/07 02:39:21;;;;;;;4.20;0.77;;;2.60;99.90;;;;;;5073108;28;20470;-77
2023/03/07 02:41:52;;;;;;;0.57;0.57;;;2.50;99.90;;;;;;5073107;28;20456;-77
2023/03/07 02:44:18;;;;;;;0.67;0.60;;;2.50;99.90;;;;;;5072941;28;20493;-77
2023/03/07 02:46:45;;;;;;;0.53;0.53;;;2.50;99.90;;;;;;5073401;28;20442;-77
2023/03/07 02:49:12;;;;;;;1.23;1.00;;;2.50;99.90;;;;;;5073572;28;20465;-77
2023/03/07 02:51:39;;;;;;;0.60;0.60;;;2.50;99.90;;;;;;5073571;28;20464;-77
2023/03/07 02:54:07;;;;;;;0.87;0.87;;;2.50;99.90;;;;;;5073030;28;20789;-77
2023/03/07 02:56:34;;;;;;;1.67;0.47;;;2.50;99.90;;;;;;5073242;28;20445;-77
2023/03/07 02:59:02;;;;;;;0.60;0.60;;;2.50;99.90;;;;;;5073200;28;20501;-77
2023/03/07 03:01:29;;;;;;;0.40;0.40;;;2.40;99.90;;;;;;5073223;28;20454;-77
2023/03/07 03:03:55;;;;;;;0.60;0.57;;;2.40;99.90;;;;;;5073121;28;20453;-77
2023/03/07 03:06:23;;;;;;;0.53;0.53;;;2.40;99.90;;;;;;5073170;28;20449;-77
2023/03/07 03:08:49;;;;;;;0.83;0.83;;;2.40;99.90;;;;;;5073126;28;20473;-77
2023/03/07 03:11:16;;;;;;;0.60;0.60;;;2.30;99.90;;;;;;5073152;28;20453;-77
2023/03/07 03:13:43;;;;;;;1.10;1.07;;;2.20;99.90;;;;;;5073148;28;20487;-77
2023/03/07 03:16:11;;;;;;;0.70;0.60;;;2.20;99.90;;;;;;5073087;28;20448;-77
2023/03/07 03:18:37;;;;;;;2.63;0.70;;;2.20;99.90;;;;;;5073013;28;20466;-77
2023/03/07 03:21:08;;;;;;;2.30;0.90;;;2.30;99.90;;;;;;5073042;28;20491;-77
2023/03/07 03:23:35;;;;;;;0.70;0.53;;;2.30;99.90;;;;;;5073025;28;20434;-77
2023/03/07 03:26:06;;;;;;;0.30;0.30;;;2.40;99.90;;;;;;5072659;28;20477;-77
2023/03/07 03:28:33;;;;;;;2.23;0.73;;;2.40;99.90;;;;;;5072912;28;20484;-77
2023/03/07 03:31:02;;;;;;;3.17;0.70;;;2.50;99.90;;;;;;5072947;28;20441;-77
2023/03/07 03:33:30;;;;;;;0.73;0.73;;;2.60;99.90;;;;;;5072946;28;20540;-77
2023/03/07 03:35:57;;;;;;;0.30;0.30;;;2.60;99.90;;;;;;5072929;28;20453;-77
2023/03/07 03:38:25;;;;;;;1.77;1.00;;;2.60;99.90;;;;;;5072801;28;20466;-77
2023/03/07 03:40:52;;;;;;;0.40;0.37;;;2.50;99.90;;;;;;5072892;28;20454;-77
2023/03/07 03:43:19;;;;;;;0.50;0.50;;;2.60;99.90;;;;;;5074183;28;20477;-77
2023/03/07 03:45:53;;;;;;;1.43;0.70;;;2.50;99.90;;;;;;5076231;28;20996;-76
2023/03/07 03:48:20;;;;;;;1.27;0.40;;;2.60;99.90;;;;;;5076556;28;20469;-77
2023/03/07 03:50:48;;;;;;;0.30;0.30;;;2.60;99.90;;;;;;5076262;28;20437;-77
2023/03/07 03:53:15;;;;;;;2.77;0.83;;;2.60;99.90;;;;;;5076526;28;20449;-77
2023/03/07 03:55:42;;;;;;;1.27;0.60;;;2.60;99.90;;;;;;5076431;28;20812;-77
2023/03/07 03:58:09;;;;;;;0.60;0.30;;;2.70;99.90;;;;;;5076321;28;20466;-77
2023/03/07 04:00:36;;;;;;;0.90;0.60;;;2.70;99.90;;;;;;5076304;28;20553;-77
2023/03/07 04:03:03;;;;;;;0.40;0.30;;;2.70;99.90;;;;;;5076285;28;20452;-77
2023/03/07 04:05:33;;;;;;;2.40;0.57;;;2.70;99.90;;;;;;5075862;28;20481;-77
2023/03/07 04:08:01;;;;;;;2.73;1.40;;;2.70;99.90;;;;;;5076148;28;20465;-77
2023/03/07 04:10:28;;;;;;;0.90;0.77;;;2.70;99.90;;;;;;5076174;28;20445;-77
2023/03/07 04:12:54;;;;;;;0.40;0.30;;;2.70;99.90;;;;;;5075864;28;20498;-77
2023/03/07 04:15:21;;;;;;;0.90;0.50;;;2.70;99.90;;;;;;5076066;28;20468;-77
2023/03/07 04:17:48;;;;;;;0.63;0.63;;;2.70;99.90;;;;;;5075993;28;20461;-77
2023/03/07 04:20:16;;;;;;;0.50;0.50;;;2.70;99.90;;;;;;5076024;28;20441;-77
2023/03/07 04:22:43;;;;;;;0.50;0.40;;;2.60;99.90;;;;;;5075930;28;20572;-77
2023/03/07 04:25:11;;;;;;;0.43;0.40;;;2.70;99.90;;;;;;5075496;28;20472;-77
2023/03/07 04:27:37;;;;;;;0.40;0.40;;;2.70;99.90;;;;;;5075482;28;20846;-77
2023/03/07 04:30:05;;;;;;;0.77;0.50;;;2.70;99.90;;;;;;5075867;28;20453;-77
2023/03/07 04:32:32;;;;;;;0.30;0.30;;;2.70;99.90;;;;;;5075730;28;20488;-77
2023/03/07 04:34:58;;;;;;;1.33;0.40;;;2.70;99.90;;;;;;5075740;28;20442;-77
2023/03/07 04:37:25;;;;;;;5.17;0.97;;;2.80;99.90;;;;;;5075262;28;20469;-77
2023/03/07 04:39:52;;;;;;;1.23;0.43;;;2.80;99.90;;;;;;5075669;28;20469;-77
2023/03/07 04:42:20;;;;;;;0.40;0.30;;;2.80;99.90;;;;;;5075628;28;20448;-77
2023/03/07 04:44:47;;;;;;;0.67;0.67;;;2.80;99.90;;;;;;5075034;28;20997;-77
2023/03/07 04:47:13;;;;;;;0.80;0.60;;;2.80;99.90;;;;;;5075654;28;20450;-77
2023/03/07 04:49:40;;;;;;;1.00;0.60;;;2.80;99.90;;;;;;5075483;28;20457;-77
2023/03/07 04:52:07;;;;;;;0.30;0.30;;;2.70;99.90;;;;;;5075112;28;20933;-76
2023/03/07 04:54:34;;;;;;;0.53;0.53;;;2.70;99.90;;;;;;5075747;28;20476;-77
2023/03/07 04:57:00;;;;;;;0.50;0.40;;;2.60;99.90;;;;;;5075915;28;20457;-77
2023/03/07 04:59:28;;;;;;;1.80;0.43;;;2.60;99.90;;;;;;5075306;28;20450;-77
2023/03/07 05:01:55;;;;;;;0.47;0.47;;;2.70;99.90;;;;;;5075230;28;20449;-77
2023/03/07 05:04:22;;;;;;;0.50;0.47;;;2.60;99.90;;;;;;5075203;28;20453;-77
2023/03/07 05:06:48;;;;;;;0.50;0.50;;;2.60;99.90;;;;;;5074726;28;20826;-77
2023/03/07 05:09:15;;;;;;;0.40;0.40;;;2.60;99.90;;;;;;5074990;28;20472;-77
2023/03/07 05:11:42;;;;;;;0.50;0.50;;;2.60;99.90;;;;;;5075057;28;20795;-77
2023/03/07 05:14:08;;;;;;;0.80;0.60;;;2.60;99.90;;;;;;5074976;28;20453;-77
2023/03/07 05:16:36;;;;;;;0.40;0.37;;;2.60;99.90;;;;;;5075028;28;20441;-77
2023/03/07 05:19:03;;;;;;;0.40;0.30;;;2.60;99.90;;;;;;5074830;28;20473;-77
2023/03/07 05:21:30;;;;;;;0.77;0.77;;;2.50;99.90;;;;;;5074839;28;20450;-77
2023/03/07 05:23:57;;;;;;;0.47;0.47;;;2.50;99.90;;;;;;5074749;28;20461;-77
2023/03/07 05:26:23;;;;;;;0.80;0.73;;;2.50;99.90;;;;;;5074348;28;20480;-77
2023/03/07 05:28:50;;;;;;;0.60;0.60;;;2.50;99.90;;;;;;5074620;28;20465;-77
2023/03/07 05:31:17;;;;;;;0.40;0.30;;;2.50;99.90;;;;;;5074636;28;20445;-77
2023/03/07 05:33:45;;;;;;;4.03;0.50;;;2.50;99.90;;;;;;5074579;28;20473;-76
2023/03/07 05:36:11;;;;;;;0.80;0.57;;;2.50;99.90;;;;;;5074271;28;20442;-76
2023/03/07 05:38:38;;;;;;;0.30;0.30;;;2.40;99.90;;;;;;5074377;28;20476;-76
2023/03/07 05:41:05;;;;;;;2.30;0.70;;;2.40;99.90;;;;;;5074149;28;20457;-76
2023/03/07 05:43:32;;;;;;;0.70;0.40;;;2.30;99.90;;;;;;5074004;28;20489;-76
2023/03/07 05:45:58;;;;;;;3.80;1.40;;;2.20;99.90;;;;;;5074177;28;20512;-76
2023/03/07 05:48:25;;;;;;;0.37;0.30;;;2.20;99.90;;;;;;5074232;28;20481;-76
2023/03/07 05:50:53;;;;;;;0.70;0.50;;;2.20;99.90;;;;;;5074283;28;20448;-76
2023/03/07 05:53:20;;;;;;;0.50;0.40;;;2.30;99.90;;;;;;5074173;28;20557;-76
2023/03/07 05:55:47;;;;;;;5.00;0.63;;;2.20;99.90;;;;;;5073823;28;20941;-76
2023/03/07 05:58:13;;;;;;;0.40;0.30;;;2.10;99.90;;;;;;5074063;28;20469;-76
2023/03/07 06:00:40;;;;;;;1.47;0.70;;;2.10;99.90;;;;;;5074127;28;20547;-76
2023/03/07 06:03:07;;;;;;;0.30;0.30;;;2.10;99.90;;;;;;5074034;28;20844;-75
2023/03/07 06:05:33;;;;;;;1.03;0.50;;;2.10;99.90;;;;;;5073136;28;20485;-76
2023/03/07 06:08:02;;;;;;;0.30;0.20;;;2.10;99.90;;;;;;5073845;28;20457;-76
2023/03/07 06:10:29;;;;;;;0.30;0.30;;;2.10;99.90;;;;;;5074070;28;20540;-76
2023/03/07 06:12:56;;;;;;;2.60;0.53;;;2.10;99.90;;;;;;5073537;28;20449;-76
2023/03/07 06:15:23;;;;;;;2.10;0.40;;;2.10;99.90;;;;;;5074041;28;20491;-76
2023/03/07 06:17:51;;;;;;;1.27;0.53;;;2.10;99.90;;;;;;5073641;28;20465;-76
2023/03/07 06:20:19;;;;;;;1.13;0.40;;;2.00;99.90;;;;;;5073394;28;20449;-76
2023/03/07 06:22:46;;;;;;;0.70;0.30;;;2.00;99.90;;;;;;5073599;28;20485;-76
2023/03/07 06:25:15;;;;;;;1.37;0.77;;;2.00;99.90;;;;;;5073602;28;20460;-76
2023/03/07 06:27:42;;;;;;;0.30;0.20;;;2.00;99.90;;;;;;5073536;28;20465;-76
2023/03/07 06:30:10;;;;;;;4.73;0.80;;;2.10;99.90;;;;;;5073858;28;20451;-76
2023/03/07 06:32:37;;;;;;;1.00;0.63;;;2.20;99.90;;;;;;5073738;28;20449;-76
2023/03/07 06:35:04;;;;;;;0.57;0.30;;;2.20;99.90;;;;;;5073253;28;20941;-76
2023/03/07 06:37:31;;;;;;;0.50;0.40;;;2.20;99.90;;;;;;5073417;28;20477;-76
2023/03/07 06:39:58;;;;;;;0.50;0.40;;;2.30;99.90;;;;;;5073488;28;20456;-76
2023/03/07 06:42:26;;;;;;;1.10;1.10;;;2.50;99.90;;;;;;5073149;28;20437;-76
2023/03/07 06:44:53;;;;;;;0.93;0.93;;;2.50;99.90;;;;;;5072966;28;20484;-76
2023/03/07 06:47:19;;;;;;;0.50;0.50;;;2.60;99.90;;;;;;5073293;28;20489;-76
2023/03/07 06:49:46;;;;;;;1.07;0.63;;;2.70;99.90;;;;;;5073075;28;20520;-76
2023/03/07 06:52:13;;;;;;;0.80;0.80;;;2.80;99.90;;;;;;5073313;28;20472;-76
2023/03/07 06:54:39;;;;;;;1.07;0.40;;;2.80;99.90;;;;;;5073316;28;20456;-76
2023/03/07 06:57:06;;;;;;;0.30;0.30;;;2.90;99.90;;;;;;5072870;28;20437;-76
2023/03/07 06:59:34;;;;;;;1.10;0.40;;;2.90;99.90;;;;;;5072942;28;20444;-76
2023/03/07 07:02:01;;;;;;;1.90;0.83;;;3.00;99.90;;;;;;5073247;28;20450;-76
2023/03/07 07:04:28;;;;;;;1.10;0.77;;;3.10;99.90;;;;;;5072964;28;20472;-76
2023/03/07 07:06:55;;;;;;;0.50;0.40;;;3.20;99.90;;;;;;5073099;28;20477;-76
2023/03/07 07:09:22;;;;;;;0.70;0.63;;;3.20;99.90;;;;;;5073132;28;20470;-76
2023/03/07 07:11:48;;;;;;;1.73;0.60;;;3.50;99.90;;;;;;5073102;28;20952;-76
2023/03/07 07:14:15;;;;;;;3.70;0.40;;;3.50;99.90;;;;;;5073136;28;20448;-76
2023/03/07 07:16:43;;;;;;;0.40;0.37;;;3.60;99.90;;;;;;5073750;28;20441;-76
2023/03/07 07:19:10;;;;;;;0.30;0.30;;;3.70;99.90;;;;;;5076807;28;21011;-76
2023/03/07 07:21:37;;;;;;;0.50;0.40;;;3.80;99.90;;;;;;5077084;28;20445;-76
2023/03/07 07:24:04;;;;;;;0.73;0.40;;;4.00;99.90;;;;;;5076729;28;20452;-76
2023/03/07 07:26:31;;;;;;;1.30;0.70;;;4.00;99.90;;;;;;5076958;28;20550;-76
2023/03/07 07:28:58;;;;;;;7.40;0.83;;;4.10;99.90;;;;;;5076934;28;20822;-76
2023/03/07 07:31:24;;;;;;;0.30;0.30;;;4.20;99.90;;;;;;5076927;28;20441;-76
2023/03/07 07:33:52;;;;;;;0.60;0.50;;;4.30;99.90;;;;;;5076676;28;20819;-76
2023/03/07 07:36:19;;;;;;;0.60;0.60;;;4.50;99.90;;;;;;5077118;28;20441;-76
2023/03/07 07:38:46;;;;;;;0.37;0.30;;;4.70;99.90;;;;;;5076713;28;20836;-76
2023/03/07 07:41:12;;;;;;;0.50;0.30;;;4.70;99.90;;;;;;5076754;28;20441;-76
2023/03/07 07:43:40;;;;;;;0.80;0.70;;;4.90;99.90;;;;;;5076348;28;20476;-76
2023/03/07 07:46:07;;;;;;;1.13;0.40;;;4.80;99.90;;;;;;5076585;28;20488;-76
2023/03/07 07:48:34;;;;;;;0.50;0.50;;;5.00;99.90;;;;;;5076217;28;20461;-76
2023/03/07 07:51:03;;;;;;;0.73;0.30;;;5.00;99.90;;;;;;5076586;28;20452;-76
2023/03/07 07:53:30;;;;;;;1.33;0.70;;;5.10;99.90;;;;;;5076497;28;20456;-79
2023/03/07 07:55:57;;;;;;;0.50;0.40;;;5.20;99.90;;;;;;5076522;28;20441;-77
2023/03/07 07:58:24;;;;;;;0.50;0.50;;;5.30;99.90;;;;;;5076342;28;20465;-77
2023/03/07 08:00:51;;;;;;;0.50;0.50;;;5.40;99.90;;;;;;5076366;28;20449;-77
2023/03/07 08:03:17;;;;;;;0.33;0.33;;;5.50;99.90;;;;;;5076330;28;20445;-77
2023/03/07 08:05:47;;;;;;;0.53;0.40;;;5.40;99.90;;;;;;5076379;28;20448;-77
2023/03/07 08:08:15;;;;;;;0.50;0.40;;;5.60;99.90;;;;;;5076256;28;20469;-77
2023/03/07 08:10:43;;;;;;;0.40;0.30;;;5.70;99.90;;;;;;5076398;28;20469;-76
2023/03/07 08:13:12;;;;;;;0.80;0.80;;;5.90;99.90;;;;;;5076161;28;20495;-77
2023/03/07 08:15:39;;;;;;;1.27;0.80;;;6.00;99.90;;;;;;5076345;28;20446;-76
2023/03/07 08:18:06;;;;;;;0.70;0.40;;;6.20;99.90;;;;;;5075859;28;20469;-77
2023/03/07 08:20:32;;;;;;;0.47;0.47;;;6.40;99.90;;;;;;5075986;28;20449;-77
2023/03/07 08:22:59;;;;;;;0.50;0.50;;;6.40;99.90;;;;;;5076123;28;20457;-77
2023/03/07 08:25:27;;;;;;;0.60;0.40;;;6.50;99.90;;;;;;5075665;28;20445;-77
2023/03/07 08:27:55;;;;;;;0.40;0.33;;;6.50;99.90;;;;;;5075542;28;20489;-77
2023/03/07 08:30:23;;;;;;;0.83;0.83;;;6.60;99.90;;;;;;5075278;28;20441;-77
2023/03/07 08:32:50;;;;;;;3.83;0.73;;;6.70;99.90;;;;;;5076008;28;20460;-77
2023/03/07 08:35:17;;;;;;;2.70;1.30;;;6.60;99.90;;;;;;5075753;28;20450;-77
2023/03/07 08:37:43;;;;;;;3.90;1.10;;;6.70;99.90;;;;;;5075752;28;20465;-78
2023/03/07 08:40:13;;;;;;;1.83;0.50;;;6.70;99.90;;;;;;5075641;28;20441;-78
2023/03/07 08:42:41;;;;;;;0.50;0.50;;;6.80;99.90;;;;;;5075351;28;20454;-77
2023/03/07 08:45:09;;;;;;;2.00;0.87;;;7.10;99.90;;;;;;5075615;28;20426;-77
2023/03/07 08:47:36;;;;;;;1.10;0.63;;;7.20;99.90;;;;;;5075096;28;20485;-77
2023/03/07 08:50:03;;;;;;;1.73;1.20;;;7.40;99.90;;;;;;5075563;28;20449;-77
2023/03/07 08:52:30;;;;;;;0.30;0.20;;;7.60;99.90;;;;;;5075464;28;20481;-77
2023/03/07 08:54:56;;;;;;;0.40;0.37;;;7.60;99.90;;;;;;5075419;28;20453;-77
2023/03/07 08:57:24;;;;;;;0.90;0.50;;;7.50;99.90;;;;;;5075294;28;20484;-77
2023/03/07 08:59:52;;;;;;;1.13;0.53;;;7.50;99.90;;;;;;5075335;28;20477;-77
2023/03/07 09:02:19;;;;;;;1.73;0.90;;;7.30;99.90;;;;;;5075258;28;20445;-77
2023/03/07 09:04:45;;;;;;;1.43;0.70;;;7.20;99.90;;;;;;5075188;28;20454;-77
2023/03/07 09:07:12;;;;;;;2.30;0.80;;;7.10;99.90;;;;;;5074962;28;20470;-76
2023/03/07 09:09:39;;;;;;;2.30;0.60;;;6.80;99.90;;;;;;5075126;28;20453;-77
2023/03/07 09:12:06;;;;;;;0.77;0.50;;;6.80;99.90;;;;;;5075062;28;20448;-77
2023/03/07 09:14:32;;;;;;;4.87;1.00;;;6.70;99.90;;;;;;5075023;28;20452;-77
2023/03/07 09:17:01;;;;;;;2.10;0.90;;;6.60;99.90;;;;;;5074662;28;20945;-77
2023/03/07 09:19:28;;;;;;;4.13;0.50;;;6.70;99.90;;;;;;5074885;28;20459;-77
2023/03/07 09:21:55;;;;;;;0.70;0.50;;;6.60;99.90;;;;;;5074486;28;20968;-77
2023/03/07 09:24:22;;;;;;;0.50;0.50;;;6.50;99.90;;;;;;5075015;28;20445;-77
2023/03/07 09:26:48;;;;;;;1.73;0.70;;;6.50;99.90;;;;;;5074693;28;20504;-77
2023/03/07 09:29:15;;;;;;;0.40;0.40;;;6.30;99.90;;;;;;5074644;28;20476;-77
2023/03/07 09:31:43;;;;;;;0.60;0.50;;;6.30;99.90;;;;;;5074624;28;20476;-77
2023/03/07 09:34:11;;;;;;;1.23;0.40;;;6.20;99.90;;;;;;5074306;28;20933;-77
2023/03/07 09:36:37;;;;;;;4.37;0.70;;;6.10;99.90;;;;;;5074206;28;20437;-77
2023/03/07 09:39:05;;;;;;;1.80;0.47;;;6.10;99.90;;;;;;5074427;28;20492;-77
2023/03/07 09:41:51;;;;;;;0.70;0.60;;;6.10;99.90;;;;;;5074416;28;20539;-77
2023/03/07 09:44:32;;;;;;;1.60;0.50;;;6.10;99.90;;;;;;5074183;28;20484;-77
2023/03/07 09:47:11;;;;;;;0.50;0.50;;;6.10;99.90;;;;;;5074320;28;20465;-77
2023/03/07 09:49:46;;;;;;;0.80;0.80;;;6.00;99.90;;;;;;5074595;28;20437;-77
2023/03/07 09:52:14;;;;;;;0.40;0.40;;;5.80;99.90;;;;;;5073951;28;20433;-77
2023/03/07 09:54:46;;;;;;;0.70;0.57;;;5.70;99.90;;;;;;5074263;28;20473;-80
2023/03/07 09:57:18;;;;;;;0.40;0.40;;;5.60;99.90;;;;;;5074141;28;20430;-78
2023/03/07 09:59:47;;;;;;;0.70;0.50;;;5.60;99.90;;;;;;5074129;28;20433;-78
2023/03/07 10:02:19;;;;;;;4.47;0.73;;;5.60;99.90;;;;;;5074092;28;20449;-78
2023/03/07 10:04:52;;;;;;;1.13;0.50;;;5.60;99.90;;;;;;5074078;28;20433;-78
2023/03/07 10:07:23;;;;;;;3.30;0.70;;;5.60;99.90;;;;;;5073848;28;20473;-77
2023/03/07 10:09:53;;;;;;;2.07;0.53;;;5.70;99.90;;;;;;5073967;28;20456;-77
2023/03/07 10:12:43;;;;;;;1.30;0.90;;;5.70;99.90;;;;;;5073629;28;20444;-77
2023/03/07 10:15:34;;;;;;;0.40;0.40;;;5.70;99.90;;;;;;5073608;28;20440;-77
2023/03/07 10:18:24;;;;;;;0.60;0.60;;;5.70;99.90;;;;;;5073726;28;20465;-77
2023/03/07 10:20:59;;;;;;;0.40;0.30;;;5.70;99.90;;;;;;5073782;28;20478;-77
2023/03/07 10:23:43;;;;;;;0.40;0.40;;;5.70;99.90;;;;;;5073781;28;20452;-77
2023/03/07 10:26:12;;;;;;;1.43;1.33;;;5.70;99.90;;;;;;5073726;28;20442;-77
2023/03/07 10:28:41;;;;;;;1.00;0.37;;;5.70;99.90;;;;;;5073465;28;20496;-77
2023/03/07 10:31:17;;;;;;;0.30;0.30;;;5.70;99.90;;;;;;5073561;28;20452;-77
2023/03/07 10:33:46;;;;;;;2.40;1.27;;;5.70;99.90;;;;;;5073316;28;20913;-77
2023/03/07 10:36:19;;;;;;;0.43;0.43;;;5.70;99.90;;;;;;5073517;28;20448;-77
2023/03/07 10:38:57;;;;;;;0.67;0.67;;;5.70;99.90;;;;;;5073513;28;20469;-78
2023/03/07 10:41:24;;;;;;;0.40;0.40;;;5.80;99.90;;;;;;5073527;28;20779;-77
2023/03/07 10:43:53;;;;;;;2.60;0.63;;;5.90;99.90;;;;;;5073189;28;20486;-78
2023/03/07 10:46:22;;;;;;;1.50;0.70;;;5.80;99.90;;;;;;5073372;28;20548;-77
2023/03/07 10:48:51;;;;;;;0.50;0.40;;;5.70;99.90;;;;;;5073365;28;20464;-77
2023/03/07 10:51:31;;;;;;;3.50;0.63;;;5.60;99.90;;;;;;5073269;28;20462;-77
2023/03/07 10:53:59;;;;;;;0.50;0.50;;;5.50;99.90;;;;;;5073391;28;20436;-77
2023/03/07 10:56:25;;;;;;;13.40;1.13;;;5.50;99.90;;;;;;5073310;28;20449;-77
2023/03/07 10:59:03;;;;;;;0.50;0.50;;;5.50;99.90;;;;;;5072982;28;20465;-78
2023/03/07 11:01:30;;;;;;;0.37;0.33;;;5.60;99.90;;;;;;5073404;28;20438;-78
2023/03/07 11:04:01;;;;;;;1.10;0.53;;;5.50;99.90;;;;;;5073191;28;20453;-77
2023/03/07 11:06:35;;;;;;;1.03;0.30;;;5.50;99.90;;;;;;5073987;28;20430;-78
2023/03/07 11:09:18;;;;;;;2.00;0.50;;;5.40;99.90;;;;;;5073445;28;20462;-77
2023/03/07 11:11:49;;;;;;;1.27;0.67;;;5.50;99.90;;;;;;5073214;28;20438;-77
2023/03/07 11:14:16;;;;;;;0.60;0.60;;;5.60;99.90;;;;;;5073123;28;20454;-78
2023/03/07 11:16:49;;;;;;;1.70;0.50;;;5.60;99.90;;;;;;5073141;28;20480;-78
2023/03/07 11:19:35;;;;;;;1.23;0.60;;;5.60;99.90;;;;;;5073055;28;20816;-77
2023/03/07 11:22:15;;;;;;;0.43;0.40;;;5.60;99.90;;;;;;5072813;28;20434;-77
2023/03/07 11:24:49;;;;;;;0.97;0.67;;;5.60;99.90;;;;;;5073114;28;20437;-77
2023/03/07 11:27:22;;;;;;;0.30;0.30;;;5.60;99.90;;;;;;5072970;28;20504;-77
2023/03/07 11:30:15;;;;;;;0.30;0.30;;;5.70;99.90;;;;;;5073024;28;20437;-78
2023/03/07 11:32:47;;;;;;;0.40;0.40;;;5.70;99.90;;;;;;5073044;28;20827;-77
2023/03/07 11:35:19;;;;;;;0.70;0.50;;;5.70;99.90;;;;;;5073049;28;20789;-78
2023/03/07 11:37:57;;;;;;;1.60;0.43;;;5.70;99.90;;;;;;5072606;28;21003;-78
2023/03/07 11:40:26;;;;;;;1.33;0.40;;;5.70;99.90;;;;;;5073047;28;20433;-77
2023/03/07 11:43:05;;;;;;;0.40;0.30;;;5.60;99.90;;;;;;5072584;28;20490;-77
2023/03/07 11:45:42;;;;;;;0.70;0.70;;;5.60;99.90;;;;;;5072800;28;20455;-77
2023/03/07 11:48:19;;;;;;;0.47;0.47;;;5.60;99.90;;;;;;5072754;28;20516;-77
2023/03/07 11:50:53;;;;;;;0.77;0.60;;;5.50;99.90;;;;;;5072515;28;20429;-77
2023/03/07 11:53:41;;;;;;;0.70;0.70;;;5.60;99.90;;;;;;5072790;28;20429;-77
2023/03/07 11:56:21;;;;;;;4.43;0.77;;;5.60;99.90;;;;;;5072790;28;20523;-77
2023/03/07 11:59:27;;;;;;;0.67;0.40;;;5.50;99.90;;;;;;5072800;28;20461;-77
2023/03/07 12:01:57;;;;;;;0.50;0.40;;;5.50;99.90;;;;;;5067689;28;20453;-77
2023/03/07 12:04:51;;;;;;;0.70;0.60;;;5.60;99.90;;;;;;5074304;28;20535;-77
2023/03/07 12:07:44;;;;;;;1.43;0.67;;;5.50;99.90;;;;;;5076354;28;20469;-78
2023/03/07 12:10:27;;;;;;;0.93;0.50;;;5.60;99.90;;;;;;5075921;28;20901;-77
2023/03/07 12:13:05;;;;;;;2.10;0.60;;;5.60;99.90;;;;;;5076106;28;20440;-78
2023/03/07 12:15:36;;;;;;;2.57;0.70;;;5.70;99.90;;;;;;5076190;28;20433;-78
2023/03/07 12:18:27;;;;;;;4.93;0.73;;;5.70;99.90;;;;;;5076067;28;20466;-77
2023/03/07 12:21:10;;;;;;;0.30;0.30;;;5.70;99.90;;;;;;5073267;28;20449;-78
2023/03/07 12:23:41;;;;;;;0.40;0.40;;;5.70;99.90;;;;;;5075652;28;20906;-78
2023/03/07 12:26:16;;;;;;;4.33;1.03;;;5.70;99.90;;;;;;5075649;28;20440;-77
2023/03/07 12:28:45;;;;;;;0.60;0.40;;;6.00;99.90;;;;;;5075769;28;20488;-78
2023/03/07 12:31:17;;;;;;;0.43;0.43;;;6.20;99.60;;;;;;5075850;28;20808;-77
2023/03/07 12:33:51;;;;;;;1.80;0.53;;;6.40;99.40;;;;;;5075821;28;20437;-78
2023/03/07 12:36:24;;;;;;;0.67;0.67;;;6.60;99.60;;;;;;5075787;28;20438;-77
2023/03/07 12:38:57;;;;;;;0.30;0.30;;;6.80;99.30;;;;;;5075640;28;20539;-78
2023/03/07 12:41:35;;;;;;;1.40;0.80;;;6.80;98.60;;;;;;5075676;28;20445;-78
2023/03/07 12:44:06;;;;;;;0.67;0.67;;;6.80;98.20;;;;;;5075101;28;20832;-77
2023/03/07 12:46:40;;;;;;;1.00;0.60;;;7.00;98.40;;;;;;5075822;28;20426;-78
2023/03/07 12:49:16;;;;;;;0.83;0.83;;;7.20;98.40;;;;;;5075387;28;20492;-78
2023/03/07 12:51:48;;;;;;;1.10;1.10;;;7.20;97.40;;;;;;5075523;28;20441;-78
2023/03/07 12:54:21;;;;;;;3.17;0.70;;;7.10;97.20;;;;;;5075512;28;20782;-78
2023/03/07 12:56:54;;;;;;;0.40;0.40;;;7.20;97.00;;;;;;5075103;28;20440;-78
2023/03/07 12:59:22;;;;;;;0.40;0.30;;;7.20;96.50;;;;;;5075319;28;20469;-78
2023/03/07 13:01:53;;;;;;;2.10;0.50;;;7.20;95.90;;;;;;5075291;28;20472;-78
2023/03/07 13:04:25;;;;;;;0.93;0.40;;;7.10;95.80;;;;;;5075262;28;20438;-78
2023/03/07 13:06:55;;;;;;;0.50;0.40;;;7.10;96.20;;;;;;5075195;28;20437;-78
2023/03/07 13:09:24;;;;;;;3.23;0.87;;;7.10;96.60;;;;;;5074959;28;20481;-78